createdAt,value
2023-01-04T00:00:04.392Z,1017.51
2023-01-04T00:02:17.571Z,1017.49
2023-01-04T00:02:58.180Z,1017.51
2023-01-04T00:03:39.405Z,1017.53
2023-01-04T00:04:19.802Z,1017.54
2023-01-04T00:05:00.329Z,1017.57
2023-01-04T00:05:40.862Z,1017.57
2023-01-04T00:06:21.377Z,1017.55
2023-01-04T00:07:01.920Z,1017.52
2023-01-04T00:07:43.322Z,1017.54
2023-01-04T00:08:23.851Z,1017.6
2023-01-04T00:09:04.323Z,1017.57
2023-01-04T00:09:44.839Z,1017.53
2023-01-04T00:10:25.497Z,1017.52
2023-01-04T00:11:06.038Z,1017.51
2023-01-04T00:11:46.543Z,1017.55
2023-01-04T00:12:27.203Z,1017.54
2023-01-04T00:13:07.732Z,1017.51
2023-01-04T00:13:48.354Z,1017.48
2023-01-04T00:14:28.854Z,1017.52
2023-01-04T00:15:09.395Z,1017.46
2023-01-04T00:15:49.961Z,1017.49
2023-01-04T00:16:30.544Z,1017.52
2023-01-04T00:17:11.035Z,1017.5
2023-01-04T00:17:51.512Z,1017.62
2023-01-04T00:20:05.178Z,1017.52
2023-01-04T00:20:46.668Z,1017.51
2023-01-04T00:21:28.780Z,1017.48
2023-01-04T00:22:09.263Z,1017.46
2023-01-04T00:24:22.745Z,1017.57
2023-01-04T00:25:03.300Z,1017.52
2023-01-04T00:25:43.901Z,1017.55
2023-01-04T00:26:24.421Z,1017.52
2023-01-04T00:28:38.460Z,1017.5
2023-01-04T00:29:18.920Z,1017.48
2023-01-04T00:29:59.437Z,1017.51
2023-01-04T00:30:40.007Z,1017.49
2023-01-04T00:31:20.559Z,1017.45
2023-01-04T00:32:00.963Z,1017.43
2023-01-04T00:32:41.536Z,1017.36
2023-01-04T00:33:22.735Z,1017.39
2023-01-04T00:34:03.269Z,1017.4
2023-01-04T00:34:44.467Z,1017.41
2023-01-04T00:35:44.491Z,1017.38
2023-01-04T00:36:05.416Z,1017.38
2023-01-04T00:36:45.968Z,1017.35
2023-01-04T00:37:26.438Z,1017.39
2023-01-04T00:38:06.958Z,1017.37
2023-01-04T00:38:47.499Z,1017.3
2023-01-04T00:39:27.951Z,1017.34
2023-01-04T00:40:08.443Z,1017.38
2023-01-04T00:40:49.036Z,1017.33
2023-01-04T00:41:57.291Z,1017.35
2023-01-04T00:42:10.100Z,1017.32
2023-01-04T00:42:50.709Z,1017.3
2023-01-04T00:43:31.215Z,1017.32
2023-01-04T00:44:12.022Z,1017.3
2023-01-04T00:44:52.609Z,1017.3
2023-01-04T00:45:33.126Z,1017.3
2023-01-04T00:46:13.782Z,1017.29
2023-01-04T00:46:54.272Z,1017.27
2023-01-04T00:47:34.815Z,1017.25
2023-01-04T00:48:15.428Z,1017.22
2023-01-04T00:49:00.044Z,1017.25
2023-01-04T00:49:36.534Z,1017.26
2023-01-04T00:50:17.079Z,1017.25
2023-01-04T00:50:57.551Z,1017.27
2023-01-04T00:51:38.213Z,1017.28
2023-01-04T00:52:18.629Z,1017.26
2023-01-04T00:52:59.162Z,1017.25
2023-01-04T00:53:39.756Z,1017.25
2023-01-04T00:54:20.258Z,1017.22
2023-01-04T00:55:00.829Z,1017.24
2023-01-04T00:55:41.382Z,1017.22
2023-01-04T00:56:21.871Z,1017.21
2023-01-04T00:58:50.240Z,1017.24
2023-01-04T00:59:30.756Z,1017.24
2023-01-04T01:00:11.252Z,1017.25
2023-01-04T01:00:51.812Z,1017.24
2023-01-04T01:01:32.411Z,1017.24
2023-01-04T01:02:13.016Z,1017.26
2023-01-04T01:04:26.355Z,1017.2
2023-01-04T01:05:06.827Z,1017.22
2023-01-04T01:05:47.351Z,1017.2
2023-01-04T01:06:27.856Z,1017.22
2023-01-04T01:08:56.410Z,1017.12
2023-01-04T01:09:36.958Z,1017.15
2023-01-04T01:10:17.541Z,1017.15
2023-01-04T01:10:58.119Z,1017.17
2023-01-04T01:11:38.654Z,1017.19
2023-01-04T01:12:19.872Z,1017.2
2023-01-04T01:13:00.489Z,1017.25
2023-01-04T01:13:41.746Z,1017.28
2023-01-04T01:14:22.305Z,1017.26
2023-01-04T01:15:02.860Z,1017.26
2023-01-04T01:15:43.414Z,1017.27
2023-01-04T01:16:44.817Z,1017.22
2023-01-04T01:17:04.529Z,1017.28
2023-01-04T01:17:45.045Z,1017.27
2023-01-04T01:18:25.565Z,1017.27
2023-01-04T01:19:06.086Z,1017.24
2023-01-04T01:19:46.656Z,1017.25
2023-01-04T01:22:14.942Z,1017.24
2023-01-04T01:22:55.446Z,1017.25
2023-01-04T01:23:35.944Z,1017.28
2023-01-04T01:24:16.516Z,1017.28
2023-01-04T01:24:57.015Z,1017.25
2023-01-04T01:25:37.536Z,1017.28
2023-01-04T01:26:18.056Z,1017.29
2023-01-04T01:26:58.599Z,1017.28
2023-01-04T01:27:39.152Z,1017.32
2023-01-04T01:28:19.747Z,1017.3
2023-01-04T01:29:00.930Z,1017.32
2023-01-04T01:29:41.508Z,1017.28
2023-01-04T01:30:22.061Z,1017.27
2023-01-04T01:32:15.601Z,1017.27
2023-01-04T01:32:56.141Z,1017.26
2023-01-04T01:33:36.660Z,1017.28
2023-01-04T01:34:17.221Z,1017.29
2023-01-04T01:34:57.758Z,1017.24
2023-01-04T01:35:38.276Z,1017.25
2023-01-04T01:36:19.710Z,1017.26
2023-01-04T01:37:00.203Z,1017.26
2023-01-04T01:37:40.710Z,1017.27
2023-01-04T01:38:21.239Z,1017.29
2023-01-04T01:39:01.799Z,1017.27
2023-01-04T01:39:42.347Z,1017.26
2023-01-04T01:40:22.912Z,1017.24
2023-01-04T01:41:03.550Z,1017.28
2023-01-04T01:41:44.111Z,1017.26
2023-01-04T01:42:24.660Z,1017.26
2023-01-04T01:43:05.191Z,1017.23
2023-01-04T01:43:45.747Z,1017.25
2023-01-04T01:44:26.320Z,1017.26
2023-01-04T01:45:06.854Z,1017.22
2023-01-04T01:45:47.396Z,1017.26
2023-01-04T01:48:00.469Z,1017.25
2023-01-04T01:48:40.955Z,1017.27
2023-01-04T01:49:23.231Z,1017.22
2023-01-04T01:50:03.790Z,1017.23
2023-01-04T01:50:44.312Z,1017.24
2023-01-04T01:51:24.831Z,1017.25
2023-01-04T01:53:37.948Z,1017.24
2023-01-04T01:54:18.446Z,1017.22
2023-01-04T01:54:59.025Z,1017.24
2023-01-04T01:55:39.623Z,1017.24
2023-01-04T01:56:20.116Z,1017.2
2023-01-04T01:57:00.637Z,1017.19
2023-01-04T01:57:41.204Z,1017.19
2023-01-04T01:58:22.442Z,1017.2
2023-01-04T01:59:02.961Z,1017.2
2023-01-04T01:59:43.601Z,1017.2
2023-01-04T02:00:24.106Z,1017.22
2023-01-04T02:01:04.699Z,1017.19
2023-01-04T02:01:45.325Z,1017.2
2023-01-04T02:02:26.014Z,1017.18
2023-01-04T02:03:06.473Z,1017.16
2023-01-04T02:03:47.598Z,1017.15
2023-01-04T02:04:28.212Z,1017.16
2023-01-04T02:05:08.579Z,1017.15
2023-01-04T02:05:49.075Z,1017.16
2023-01-04T02:06:29.631Z,1017.17
2023-01-04T02:07:10.156Z,1017.13
2023-01-04T02:09:23.969Z,1017.14
2023-01-04T02:10:10.001Z,1017.11
2023-01-04T02:10:52.338Z,1017.17
2023-01-04T02:11:35.416Z,1017.12
2023-01-04T02:13:33.395Z,1017.15
2023-01-04T02:14:13.859Z,1017.16
2023-01-04T02:14:54.394Z,1017.18
2023-01-04T02:15:34.962Z,1017.18
2023-01-04T02:17:49.992Z,1017.13
2023-01-04T02:18:30.507Z,1017.07
2023-01-04T02:19:11.043Z,1017.12
2023-01-04T02:19:51.544Z,1017.11
2023-01-04T02:20:32.086Z,1017.12
2023-01-04T02:21:12.607Z,1017.11
2023-01-04T02:21:53.149Z,1017.1
2023-01-04T02:24:06.269Z,1017.07
2023-01-04T02:24:48.027Z,1017
2023-01-04T02:25:28.576Z,1016.98
2023-01-04T02:26:09.098Z,1016.97
2023-01-04T02:28:27.744Z,1016.87
2023-01-04T02:29:08.348Z,1016.86
2023-01-04T02:29:48.891Z,1016.85
2023-01-04T02:30:29.453Z,1016.74
2023-01-04T02:31:10.107Z,1016.76
2023-01-04T02:31:51.244Z,1016.73
2023-01-04T02:32:31.674Z,1016.78
2023-01-04T02:33:12.211Z,1016.73
2023-01-04T02:33:52.768Z,1016.75
2023-01-04T02:34:33.344Z,1016.71
2023-01-04T02:35:14.744Z,1016.73
2023-01-04T02:35:55.272Z,1016.76
2023-01-04T02:36:35.863Z,1016.82
2023-01-04T02:37:16.374Z,1016.73
2023-01-04T02:37:56.859Z,1016.77
2023-01-04T02:38:37.433Z,1016.73
2023-01-04T02:39:17.947Z,1016.7
2023-01-04T02:39:58.504Z,1016.68
2023-01-04T02:40:39.080Z,1016.72
2023-01-04T02:41:19.595Z,1016.67
2023-01-04T02:42:00.827Z,1016.68
2023-01-04T02:42:41.346Z,1016.66
2023-01-04T02:43:21.877Z,1016.73
2023-01-04T02:44:02.409Z,1016.69
2023-01-04T02:44:42.908Z,1016.68
2023-01-04T02:45:23.446Z,1016.67
2023-01-04T02:46:04.093Z,1016.71
2023-01-04T02:46:44.591Z,1016.72
2023-01-04T02:47:26.044Z,1016.73
2023-01-04T02:48:07.292Z,1016.71
2023-01-04T02:48:47.813Z,1016.7
2023-01-04T02:51:04.692Z,1016.75
2023-01-04T02:51:45.154Z,1016.76
2023-01-04T02:52:27.465Z,1016.73
2023-01-04T02:53:09.886Z,1016.77
2023-01-04T02:55:30.026Z,1016.77
2023-01-04T02:56:10.548Z,1016.72
2023-01-04T02:56:51.089Z,1016.73
2023-01-04T02:57:31.599Z,1016.65
2023-01-04T02:58:12.144Z,1016.77
2023-01-04T02:58:52.697Z,1016.77
2023-01-04T02:59:33.234Z,1016.79
2023-01-04T03:00:13.800Z,1016.78
2023-01-04T03:00:54.341Z,1016.73
2023-01-04T03:01:35.115Z,1016.79
2023-01-04T03:02:15.709Z,1016.81
2023-01-04T03:02:56.152Z,1016.84
2023-01-04T03:03:36.589Z,1016.82
2023-01-04T03:04:17.257Z,1016.82
2023-01-04T03:04:57.722Z,1016.87
2023-01-04T03:05:38.283Z,1016.83
2023-01-04T03:06:18.798Z,1016.85
2023-01-04T03:06:59.353Z,1016.81
2023-01-04T03:07:39.936Z,1016.79
2023-01-04T03:08:20.432Z,1016.82
2023-01-04T03:09:01.018Z,1016.82
2023-01-04T03:09:41.583Z,1016.81
2023-01-04T03:10:22.183Z,1016.81
2023-01-04T03:11:03.251Z,1016.84
2023-01-04T03:11:43.797Z,1016.85
2023-01-04T03:12:24.361Z,1016.87
2023-01-04T03:13:04.924Z,1016.83
2023-01-04T03:13:45.466Z,1016.76
2023-01-04T03:14:31.269Z,1016.74
2023-01-04T03:15:06.565Z,1016.77
2023-01-04T03:15:47.145Z,1016.76
2023-01-04T03:16:27.656Z,1016.77
2023-01-04T03:17:08.100Z,1016.73
2023-01-04T03:17:48.621Z,1016.74
2023-01-04T03:18:29.173Z,1016.72
2023-01-04T03:19:09.707Z,1016.73
2023-01-04T03:19:50.236Z,1016.7
2023-01-04T03:20:30.731Z,1016.69
2023-01-04T03:21:11.291Z,1016.7
2023-01-04T03:21:51.784Z,1016.69
2023-01-04T03:22:32.337Z,1016.67
2023-01-04T03:23:12.826Z,1016.67
2023-01-04T03:23:53.388Z,1016.67
2023-01-04T03:24:34.887Z,1016.66
2023-01-04T03:25:15.397Z,1016.65
2023-01-04T03:25:55.961Z,1016.63
2023-01-04T03:26:36.469Z,1016.55
2023-01-04T03:27:16.974Z,1016.56
2023-01-04T03:27:57.585Z,1016.5
2023-01-04T03:28:38.060Z,1016.52
2023-01-04T03:29:18.605Z,1016.56
2023-01-04T03:29:59.207Z,1016.51
2023-01-04T03:30:39.764Z,1016.51
2023-01-04T03:31:20.399Z,1016.56
2023-01-04T03:32:00.776Z,1016.54
2023-01-04T03:32:41.359Z,1016.5
2023-01-04T03:33:21.839Z,1016.49
2023-01-04T03:34:02.371Z,1016.49
2023-01-04T03:34:42.902Z,1016.5
2023-01-04T03:35:23.513Z,1016.49
2023-01-04T03:36:03.958Z,1016.42
2023-01-04T03:36:44.531Z,1016.4
2023-01-04T03:38:57.564Z,1016.47
2023-01-04T03:39:38.044Z,1016.45
2023-01-04T03:40:18.621Z,1016.45
2023-01-04T03:40:59.136Z,1016.43
2023-01-04T03:41:39.790Z,1016.4
2023-01-04T03:42:20.315Z,1016.4
2023-01-04T03:43:00.828Z,1016.38
2023-01-04T03:43:41.401Z,1016.42
2023-01-04T03:44:21.867Z,1016.39
2023-01-04T03:45:07.839Z,1016.43
2023-01-04T03:45:42.877Z,1016.43
2023-01-04T03:46:23.391Z,1016.38
2023-01-04T03:47:05.505Z,1016.39
2023-01-04T03:47:46.012Z,1016.43
2023-01-04T03:48:27.125Z,1016.43
2023-01-04T03:49:07.660Z,1016.42
2023-01-04T03:49:48.145Z,1016.42
2023-01-04T03:50:29.297Z,1016.43
2023-01-04T03:51:09.832Z,1016.38
2023-01-04T03:51:50.393Z,1016.37
2023-01-04T03:52:31.752Z,1016.35
2023-01-04T03:53:12.268Z,1016.29
2023-01-04T03:53:52.832Z,1016.27
2023-01-04T03:54:33.329Z,1016.26
2023-01-04T03:55:13.852Z,1016.22
2023-01-04T03:57:06.713Z,1016.12
2023-01-04T03:57:47.253Z,1016.1
2023-01-04T03:58:27.812Z,1016.11
2023-01-04T03:59:08.327Z,1016.11
2023-01-04T03:59:48.854Z,1016.18
2023-01-04T04:00:29.407Z,1016.07
2023-01-04T04:01:10.001Z,1016.07
2023-01-04T04:01:51.100Z,1016.1
2023-01-04T04:02:31.604Z,1016.13
2023-01-04T04:03:12.109Z,1016.08
2023-01-04T04:03:52.662Z,1016.08
2023-01-04T04:04:33.144Z,1016.08
2023-01-04T04:05:13.642Z,1016.04
2023-01-04T04:05:54.713Z,1016.08
2023-01-04T04:06:35.238Z,1016.04
2023-01-04T04:07:15.795Z,1016
2023-01-04T04:09:13.424Z,1016.01
2023-01-04T04:09:53.965Z,1015.95
2023-01-04T04:10:34.501Z,1015.97
2023-01-04T04:11:14.977Z,1015.91
2023-01-04T04:11:55.517Z,1015.94
2023-01-04T04:12:36.070Z,1015.88
2023-01-04T04:13:16.590Z,1015.86
2023-01-04T04:13:57.078Z,1015.89
2023-01-04T04:14:37.601Z,1015.88
2023-01-04T04:15:18.136Z,1015.84
2023-01-04T04:15:58.691Z,1015.86
2023-01-04T04:16:39.172Z,1015.83
2023-01-04T04:17:19.705Z,1015.77
2023-01-04T04:18:00.244Z,1015.8
2023-01-04T04:18:40.764Z,1015.83
2023-01-04T04:19:21.983Z,1015.82
2023-01-04T04:20:02.465Z,1015.83
2023-01-04T04:20:42.983Z,1015.8
2023-01-04T04:21:23.503Z,1015.81
2023-01-04T04:22:04.701Z,1015.84
2023-01-04T04:22:45.239Z,1015.8
2023-01-04T04:23:25.747Z,1015.76
2023-01-04T04:24:06.265Z,1015.81
2023-01-04T04:24:46.804Z,1015.72
2023-01-04T04:25:27.353Z,1015.71
2023-01-04T04:26:07.871Z,1015.67
2023-01-04T04:26:48.401Z,1015.67
2023-01-04T04:27:28.931Z,1015.68
2023-01-04T04:28:09.434Z,1015.66
2023-01-04T04:28:50.072Z,1015.67
2023-01-04T04:29:30.511Z,1015.64
2023-01-04T04:30:11.039Z,1015.62
2023-01-04T04:30:51.565Z,1015.58
2023-01-04T04:31:32.260Z,1015.63
2023-01-04T04:32:12.727Z,1015.58
2023-01-04T04:32:53.966Z,1015.58
2023-01-04T04:33:34.488Z,1015.56
2023-01-04T04:34:15.033Z,1015.54
2023-01-04T04:34:55.544Z,1015.55
2023-01-04T04:35:36.745Z,1015.56
2023-01-04T04:36:17.274Z,1015.52
2023-01-04T04:36:57.799Z,1015.56
2023-01-04T04:37:38.327Z,1015.56
2023-01-04T04:38:18.851Z,1015.55
2023-01-04T04:38:59.890Z,1015.56
2023-01-04T04:40:57.839Z,1015.51
2023-01-04T04:41:38.376Z,1015.52
2023-01-04T04:42:18.874Z,1015.54
2023-01-04T04:42:59.387Z,1015.46
2023-01-04T04:43:39.983Z,1015.48
2023-01-04T04:44:20.528Z,1015.51
2023-01-04T04:45:01.129Z,1015.49
2023-01-04T04:45:41.674Z,1015.52
2023-01-04T04:46:22.249Z,1015.5
2023-01-04T04:48:36.189Z,1015.44
2023-01-04T04:49:16.688Z,1015.46
2023-01-04T04:49:57.236Z,1015.44
2023-01-04T04:50:37.777Z,1015.46
2023-01-04T04:51:18.333Z,1015.39
2023-01-04T04:53:33.894Z,1015.42
2023-01-04T04:54:14.501Z,1015.44
2023-01-04T04:54:56.018Z,1015.34
2023-01-04T04:55:37.283Z,1015.38
2023-01-04T04:56:19.687Z,1015.41
2023-01-04T04:57:01.036Z,1015.37
2023-01-04T04:59:14.091Z,1015.36
2023-01-04T04:59:54.600Z,1015.33
2023-01-04T05:00:35.114Z,1015.29
2023-01-04T05:01:15.699Z,1015.36
2023-01-04T05:01:56.350Z,1015.37
2023-01-04T05:02:38.506Z,1015.35
2023-01-04T05:03:20.806Z,1015.37
2023-01-04T05:04:01.291Z,1015.39
2023-01-04T05:06:35.330Z,1015.39
2023-01-04T05:07:16.704Z,1015.36
2023-01-04T05:07:57.262Z,1015.39
2023-01-04T05:08:37.756Z,1015.37
2023-01-04T05:10:51.524Z,1015.33
2023-01-04T05:11:32.707Z,1015.29
2023-01-04T05:12:13.240Z,1015.36
2023-01-04T05:12:57.727Z,1015.38
2023-01-04T05:15:00.808Z,1015.31
2023-01-04T05:15:41.294Z,1015.33
2023-01-04T05:16:21.850Z,1015.36
2023-01-04T05:17:02.426Z,1015.32
2023-01-04T05:17:42.863Z,1015.33
2023-01-04T05:18:23.372Z,1015.32
2023-01-04T05:19:04.572Z,1015.3
2023-01-04T05:21:20.352Z,1015.31
2023-01-04T05:21:59.660Z,1015.31
2023-01-04T05:22:40.199Z,1015.35
2023-01-04T05:23:20.813Z,1015.32
2023-01-04T05:24:01.337Z,1015.33
2023-01-04T05:24:41.898Z,1015.31
2023-01-04T05:25:22.415Z,1015.35
2023-01-04T05:26:02.966Z,1015.41
2023-01-04T05:26:43.513Z,1015.4
2023-01-04T05:27:24.068Z,1015.37
2023-01-04T05:28:04.611Z,1015.39
2023-01-04T05:28:49.984Z,1015.34
2023-01-04T05:29:25.615Z,1015.38
2023-01-04T05:30:06.279Z,1015.36
2023-01-04T05:30:46.775Z,1015.33
2023-01-04T05:31:27.268Z,1015.33
2023-01-04T05:32:07.865Z,1015.36
2023-01-04T05:32:48.302Z,1015.35
2023-01-04T05:33:28.857Z,1015.37
2023-01-04T05:34:09.399Z,1015.37
2023-01-04T05:34:49.954Z,1015.32
2023-01-04T05:35:30.517Z,1015.31
2023-01-04T05:36:11.021Z,1015.3
2023-01-04T05:36:51.571Z,1015.33
2023-01-04T05:39:04.691Z,1015.31
2023-01-04T05:39:45.863Z,1015.24
2023-01-04T05:40:26.420Z,1015.18
2023-01-04T05:41:06.957Z,1015.2
2023-01-04T05:41:47.774Z,1015.2
2023-01-04T05:42:28.364Z,1015.16
2023-01-04T05:43:08.609Z,1015.16
2023-01-04T05:43:49.695Z,1015.21
2023-01-04T05:44:30.220Z,1015.21
2023-01-04T05:45:12.501Z,1015.17
2023-01-04T05:45:52.894Z,1015.2
2023-01-04T05:46:33.530Z,1015.2
2023-01-04T05:47:15.192Z,1015.19
2023-01-04T05:47:54.838Z,1015.21
2023-01-04T05:48:35.380Z,1015.2
2023-01-04T05:49:15.924Z,1015.16
2023-01-04T05:49:56.472Z,1015.16
2023-01-04T05:50:37.092Z,1015.11
2023-01-04T05:51:18.587Z,1015.09
2023-01-04T05:51:59.155Z,1015.09
2023-01-04T05:55:52.926Z,1015.1
2023-01-04T05:56:33.480Z,1015.07
2023-01-04T05:57:14.074Z,1015.13
2023-01-04T05:57:54.689Z,1015.11
2023-01-04T05:58:35.952Z,1015.09
2023-01-04T05:59:16.553Z,1015.12
2023-01-04T05:59:57.085Z,1015.12
2023-01-04T06:00:37.638Z,1015.14
2023-01-04T06:01:18.162Z,1015.1
2023-01-04T06:03:16.103Z,1015.11
2023-01-04T06:03:58.408Z,1015.13
2023-01-04T06:04:39.013Z,1015.09
2023-01-04T06:05:19.563Z,1015.06
2023-01-04T06:06:00.096Z,1015.05
2023-01-04T06:08:12.914Z,1015
2023-01-04T06:08:53.458Z,1014.98
2023-01-04T06:09:34.034Z,1014.97
2023-01-04T06:10:14.538Z,1014.97
2023-01-04T06:10:55.093Z,1014.98
2023-01-04T06:13:08.768Z,1015.03
2023-01-04T06:13:49.322Z,1015.06
2023-01-04T06:14:29.944Z,1015.07
2023-01-04T06:15:10.576Z,1015.09
2023-01-04T06:15:51.980Z,1015.07
2023-01-04T06:16:32.590Z,1015.13
2023-01-04T06:17:13.179Z,1015.11
2023-01-04T06:17:53.653Z,1015.08
2023-01-04T06:18:34.417Z,1015.05
2023-01-04T06:19:14.931Z,1015.01
2023-01-04T06:19:55.712Z,1014.98
2023-01-04T06:20:36.303Z,1015.06
2023-01-04T06:21:16.852Z,1015.12
2023-01-04T06:21:57.376Z,1015.04
2023-01-04T06:22:37.900Z,1015.03
2023-01-04T06:23:18.466Z,1015.05
2023-01-04T06:25:46.789Z,1014.99
2023-01-04T06:26:27.341Z,1014.98
2023-01-04T06:27:07.896Z,1015.02
2023-01-04T06:27:48.443Z,1014.98
2023-01-04T06:28:29.096Z,1014.92
2023-01-04T06:29:09.713Z,1014.87
2023-01-04T06:31:07.709Z,1014.81
2023-01-04T06:31:48.169Z,1014.84
2023-01-04T06:32:28.682Z,1014.82
2023-01-04T06:33:09.197Z,1014.84
2023-01-04T06:33:49.705Z,1014.84
2023-01-04T06:34:31.303Z,1014.86
2023-01-04T06:35:10.719Z,1014.86
2023-01-04T06:35:51.233Z,1014.81
2023-01-04T06:36:31.888Z,1014.81
2023-01-04T06:37:12.404Z,1014.83
2023-01-04T06:37:52.932Z,1014.88
2023-01-04T06:38:33.474Z,1014.8
2023-01-04T06:39:14.005Z,1014.87
2023-01-04T06:39:54.518Z,1014.87
2023-01-04T06:40:35.054Z,1014.8
2023-01-04T06:41:15.564Z,1014.95
2023-01-04T06:41:59.153Z,1014.88
2023-01-04T06:42:36.627Z,1014.81
2023-01-04T06:44:49.978Z,1014.92
2023-01-04T06:45:30.478Z,1014.74
2023-01-04T06:46:11.121Z,1014.85
2023-01-04T06:46:51.549Z,1014.84
2023-01-04T06:47:32.132Z,1014.83
2023-01-04T06:48:12.625Z,1014.88
2023-01-04T06:48:53.061Z,1014.89
2023-01-04T06:49:33.656Z,1014.86
2023-01-04T06:50:14.446Z,1014.86
2023-01-04T06:50:54.930Z,1014.86
2023-01-04T06:51:35.447Z,1014.86
2023-01-04T06:52:15.989Z,1014.76
2023-01-04T06:52:56.484Z,1014.77
2023-01-04T06:53:36.983Z,1014.78
2023-01-04T06:54:17.437Z,1014.81
2023-01-04T06:54:57.946Z,1014.7
2023-01-04T06:55:38.414Z,1014.76
2023-01-04T06:56:18.922Z,1014.67
2023-01-04T06:56:59.476Z,1014.64
2023-01-04T06:57:40.240Z,1014.64
2023-01-04T06:58:20.747Z,1014.59
2023-01-04T06:59:01.309Z,1014.69
2023-01-04T06:59:41.806Z,1014.69
2023-01-04T07:00:22.404Z,1014.77
2023-01-04T07:01:02.980Z,1014.69
2023-01-04T07:01:43.580Z,1014.69
2023-01-04T07:02:24.124Z,1014.63
2023-01-04T07:03:13.195Z,1014.65
2023-01-04T07:03:45.049Z,1014.66
2023-01-04T07:04:25.649Z,1014.68
2023-01-04T07:06:23.259Z,1014.66
2023-01-04T07:07:03.823Z,1014.68
2023-01-04T07:07:44.299Z,1014.68
2023-01-04T07:08:24.799Z,1014.68
2023-01-04T07:09:05.372Z,1014.71
2023-01-04T07:11:18.899Z,1014.72
2023-01-04T07:11:59.439Z,1014.72
2023-01-04T07:12:39.948Z,1014.67
2023-01-04T07:13:20.476Z,1014.68
2023-01-04T07:14:01.144Z,1014.71
2023-01-04T07:14:41.716Z,1014.61
2023-01-04T07:15:37.613Z,1014.66
2023-01-04T07:16:02.880Z,1014.59
2023-01-04T07:16:43.436Z,1014.66
2023-01-04T07:17:29.694Z,1014.56
2023-01-04T07:18:04.397Z,1014.66
2023-01-04T07:18:44.907Z,1014.63
2023-01-04T07:19:25.456Z,1014.68
2023-01-04T07:20:06.042Z,1014.63
2023-01-04T07:20:46.555Z,1014.67
2023-01-04T07:21:27.162Z,1014.68
2023-01-04T07:22:08.439Z,1014.63
2023-01-04T07:22:49.008Z,1014.68
2023-01-04T07:23:29.568Z,1014.63
2023-01-04T07:24:10.290Z,1014.66
2023-01-04T07:24:50.882Z,1014.63
2023-01-04T07:25:31.377Z,1014.72
2023-01-04T07:26:11.876Z,1014.6
2023-01-04T07:26:52.376Z,1014.55
2023-01-04T07:27:32.901Z,1014.61
2023-01-04T07:28:13.469Z,1014.64
2023-01-04T07:28:54.027Z,1014.59
2023-01-04T07:29:34.576Z,1014.62
2023-01-04T07:31:32.554Z,1014.59
2023-01-04T07:32:14.076Z,1014.61
2023-01-04T07:32:53.598Z,1014.6
2023-01-04T07:33:34.786Z,1014.58
2023-01-04T07:35:56.635Z,1014.56
2023-01-04T07:36:37.144Z,1014.51
2023-01-04T07:37:17.742Z,1014.57
2023-01-04T07:37:59.321Z,1014.53
2023-01-04T07:38:38.807Z,1014.57
2023-01-04T07:39:20.238Z,1014.54
2023-01-04T07:40:01.328Z,1014.45
2023-01-04T07:40:55.652Z,1014.63
2023-01-04T07:41:22.534Z,1014.56
2023-01-04T07:42:03.089Z,1014.46
2023-01-04T07:42:43.622Z,1014.44
2023-01-04T07:43:27.823Z,1014.44
2023-01-04T07:44:04.919Z,1014.42
2023-01-04T07:44:45.444Z,1014.44
2023-01-04T07:45:25.942Z,1014.39
2023-01-04T07:46:06.590Z,1014.39
2023-01-04T07:46:47.082Z,1014.35
2023-01-04T07:47:27.607Z,1014.34
2023-01-04T07:48:08.215Z,1014.23
2023-01-04T07:48:49.593Z,1014.34
2023-01-04T07:49:31.030Z,1014.4
2023-01-04T07:50:11.580Z,1014.39
2023-01-04T07:50:52.086Z,1014.28
2023-01-04T07:51:32.594Z,1014.37
2023-01-04T07:52:13.153Z,1014.22
2023-01-04T07:52:53.789Z,1014.25
2023-01-04T07:53:35.009Z,1014.29
2023-01-04T07:54:15.501Z,1014.31
2023-01-04T07:54:56.124Z,1014.23
2023-01-04T07:55:36.663Z,1014.28
2023-01-04T07:56:18.944Z,1014.33
2023-01-04T07:56:57.738Z,1014.35
2023-01-04T07:57:38.291Z,1014.27
2023-01-04T07:58:18.875Z,1014.32
2023-01-04T08:00:32.814Z,1014.25
2023-01-04T08:01:14.006Z,1014.29
2023-01-04T08:01:54.498Z,1014.34
2023-01-04T08:02:35.055Z,1014.34
2023-01-04T08:03:15.521Z,1014.22
2023-01-04T08:03:56.077Z,1014.26
2023-01-04T08:04:36.708Z,1014.34
2023-01-04T08:05:17.240Z,1014.29
2023-01-04T08:05:57.699Z,1014.17
2023-01-04T08:06:38.240Z,1014.19
2023-01-04T08:08:36.188Z,1014.22
2023-01-04T08:09:16.711Z,1014.12
2023-01-04T08:09:57.247Z,1014.13
2023-01-04T08:10:37.782Z,1014.09
2023-01-04T08:11:18.296Z,1014.18
2023-01-04T08:11:58.791Z,1014.12
2023-01-04T08:12:39.340Z,1013.99
2023-01-04T08:13:20.402Z,1013.63
2023-01-04T08:14:00.934Z,1014.2
2023-01-04T08:14:41.441Z,1014.05
2023-01-04T08:15:21.962Z,1014.01
2023-01-04T08:16:02.553Z,1014.01
2023-01-04T08:16:43.050Z,1013.85
2023-01-04T08:17:23.580Z,1013.92
2023-01-04T08:18:04.107Z,1013.91
2023-01-04T08:20:34.266Z,1013.89
2023-01-04T08:21:16.534Z,1014.03
2023-01-04T08:22:00.631Z,1013.88
2023-01-04T08:22:50.747Z,1014.05
2023-01-04T08:25:05.977Z,1013.79
2023-01-04T08:25:46.486Z,1013.82
2023-01-04T08:26:27.012Z,1013.98
2023-01-04T08:27:07.731Z,1013.99
2023-01-04T08:29:36.100Z,1013.86
2023-01-04T08:30:16.968Z,1013.85
2023-01-04T08:30:58.132Z,1013.8
2023-01-04T08:31:38.594Z,1013.84
2023-01-04T08:32:19.128Z,1013.95
2023-01-04T08:32:59.649Z,1014.04
2023-01-04T08:33:40.231Z,1013.84
2023-01-04T08:34:20.783Z,1013.87
2023-01-04T08:35:02.265Z,1013.78
2023-01-04T08:35:42.827Z,1013.98
2023-01-04T08:36:26.900Z,1013.84
2023-01-04T08:37:03.878Z,1013.81
2023-01-04T08:37:44.438Z,1013.66
2023-01-04T08:39:05.525Z,1013.88
2023-01-04T08:39:49.149Z,1013.85
2023-01-04T08:40:58.348Z,1013.86
2023-01-04T08:41:23.450Z,1013.82
2023-01-04T08:41:57.804Z,1013.79
2023-01-04T08:42:31.429Z,1013.91
2023-01-04T08:43:08.833Z,1013.91
2023-01-04T08:43:49.380Z,1013.92
2023-01-04T08:44:29.931Z,1013.96
2023-01-04T08:45:10.485Z,1013.99
2023-01-04T08:45:51.162Z,1013.94
2023-01-04T08:46:31.937Z,1013.94
2023-01-04T08:47:12.240Z,1013.95
2023-01-04T08:47:52.793Z,1013.89
2023-01-04T08:48:33.340Z,1013.84
2023-01-04T08:49:13.898Z,1013.94
2023-01-04T08:49:54.454Z,1013.92
2023-01-04T08:50:34.997Z,1013.87
2023-01-04T08:51:15.700Z,1013.89
2023-01-04T08:51:56.098Z,1013.87
2023-01-04T08:52:36.788Z,1013.87
2023-01-04T08:53:17.337Z,1013.93
2023-01-04T08:53:57.928Z,1013.91
2023-01-04T08:54:38.507Z,1013.88
2023-01-04T08:55:23.232Z,1013.82
2023-01-04T08:56:00.356Z,1013.87
2023-01-04T08:56:40.943Z,1013.84
2023-01-04T08:57:21.535Z,1013.78
2023-01-04T08:58:02.078Z,1013.69
2023-01-04T08:58:43.689Z,1013.84
2023-01-04T08:59:24.237Z,1013.72
2023-01-04T09:00:04.748Z,1013.72
2023-01-04T09:00:45.304Z,1013.81
2023-01-04T09:01:26.071Z,1013.8
2023-01-04T09:03:44.858Z,1013.97
2023-01-04T09:04:25.420Z,1013.87
2023-01-04T09:05:06.097Z,1013.76
2023-01-04T09:05:46.571Z,1013.67
2023-01-04T09:06:27.133Z,1013.83
2023-01-04T09:07:07.663Z,1013.81
2023-01-04T09:07:48.190Z,1013.8
2023-01-04T09:08:28.734Z,1013.88
2023-01-04T09:09:09.283Z,1013.86
2023-01-04T09:09:49.822Z,1013.99
2023-01-04T09:10:30.383Z,1013.76
2023-01-04T09:11:10.915Z,1013.87
2023-01-04T09:11:51.458Z,1013.81
2023-01-04T09:12:31.967Z,1013.88
2023-01-04T09:13:12.483Z,1013.72
2023-01-04T09:13:53.019Z,1013.9
2023-01-04T09:14:33.581Z,1013.89
2023-01-04T09:15:14.107Z,1013.85
2023-01-04T09:15:54.633Z,1013.88
2023-01-04T09:16:35.263Z,1013.82
2023-01-04T09:18:49.401Z,1013.89
2023-01-04T09:19:32.968Z,1013.83
2023-01-04T09:20:14.132Z,1013.82
2023-01-04T09:20:54.681Z,1013.69
2023-01-04T09:23:07.744Z,1013.79
2023-01-04T09:23:48.236Z,1013.78
2023-01-04T09:24:28.747Z,1013.83
2023-01-04T09:25:09.947Z,1013.96
2023-01-04T09:25:50.469Z,1013.79
2023-01-04T09:26:30.991Z,1013.92
2023-01-04T09:27:11.508Z,1013.78
2023-01-04T09:27:52.021Z,1013.81
2023-01-04T09:28:32.600Z,1013.89
2023-01-04T09:29:13.110Z,1013.81
2023-01-04T09:29:53.631Z,1013.84
2023-01-04T09:30:34.114Z,1013.88